^^

Nearby METAR Reports

 

EGNV - Tees-Side, United Kingdom
Distance from station: SW 7mi, 11km
Updated: 23/06/2017 21:50
NOT Current
Mostly cloudy
Mostly cloudy
 Wind from SW
Wind: SW 9 mph , 15 km/h
Temperature: 17°C
Dew Point: 14°C
Humidity: 83%
Barometer: 1009 hPa
Clouds: Mostly cloudy
Visibility: 6 miles , 10 km
Cloud details: Few Clouds 457 m
Mostly cloudy 610 m
2017/06/23 20:50 EGNV 232050Z 23008KT 9999 FEW015 BKN020 17/14 Q1009
EGXE - Leeming Raf, United Kingdom
Distance from station: SSW 23mi, 37km
Updated: 24/06/2017 03:50
Mostly cloudy
Mostly cloudy
 Wind from WSW
Wind: WSW 3 mph , 6 km/h
Temperature: 13°C
Dew Point: 11°C
Humidity: 88%
Barometer: 1010 hPa
Clouds: Mostly cloudy
Visibility: 6 miles , 10 km
Cloud details: Few Clouds 640 m
Mostly cloudy 1250 m
2017/06/24 02:50 EGXE 240250Z AUTO 24003KT 9999 FEW021/// BKN041/// 13/11 Q1010
 
EGXZ - Topcliffe Raf, United Kingdom
Distance from station: S 27mi, 43km
Updated: 24/06/2017 03:50
Partly cloudy
Partly cloudy
 Wind from WSW
Wind: WSW 6 mph , 9 km/h
Temperature: 14°C
Dew Point: 12°C
Humidity: 88%
Barometer: 1010 hPa
Clouds: Partly cloudy
Visibility: 6 miles , 10 km
Cloud details: Few Clouds 640 m
Partly cloudy 1524 m
2017/06/24 02:50 EGXZ 240250Z AUTO 24005KT 9999 FEW021/// SCT050/// 14/12 Q1010
EGXD - Dishforth Raf, United Kingdom
Distance from station: S 32mi, 51km
Updated: 06/06/2016 10:50
NOT Current
Clear
Clear
 Wind from SSE
Wind: SSE 5 mph , 7 km/h
Temperature: 18°C
Dew Point: 11°C
Humidity: 64%
Barometer: 1023 hPa
Clouds: Clear
Visibility: 6 miles , 10 km
2016/06/06 09:50 EGXD 060950Z AUTO 16004KT 9999 // NCD 18/11 Q1023
 
EGNT - Newcastle, United Kingdom
Distance from station: NNW 34mi, 54km
Updated: 24/06/2017 04:20
Clear
Clear
 Wind from WSW
Wind: WSW 8 mph , 13 km/h
Temperature: 9°C
Wind Chill: 7°C
Dew Point: 8°C
Humidity: 94%
Barometer: 1009 hPa
Summary: Clear
Visibility: greater than 7 miles , 10 km
2017/06/24 03:20 EGNT 240320Z 25007KT CAVOK 09/08 Q1009
EGXU - Linton-On-Ouse R, United Kingdom
Distance from station: S 37mi, 60km
Updated: 24/06/2017 03:50
Mostly cloudy
Mostly cloudy
 Wind from WSW
Wind: WSW 8 mph , 13 km/h
Temperature: 14°C
Dew Point: 12°C
Humidity: 88%
Barometer: 1010 hPa
Clouds: Mostly cloudy
Visibility: 6 miles , 10 km
Cloud details: Mostly cloudy 1067 m
Mostly cloudy 2134 m
2017/06/24 02:50 EGXU 240250Z AUTO 25007KT 9999 // BKN035/// BKN070/// 14/12 Q1010
 
EGNM - Leeds And Bradfo, United Kingdom
Distance from station: SSW 52mi, 83km
Updated: 24/06/2017 04:20
Partly cloudy
Partly cloudy
 Wind from W
Wind: W 16 mph , 26 km/h
Temperature: 12°C
Dew Point: 11°C
Humidity: 94%
Barometer: 1010 hPa
Clouds: Partly cloudy
Visibility: 6 miles , 10 km
Cloud details: Few Clouds 244 m
Partly cloudy 914 m
2017/06/24 03:20 EGNM 240320Z 28014KT 260V350 9999 FEW008 SCT030 12/11 Q1010
EGXG - Church Fenton Ra, United Kingdom
Distance from station: S 52mi, 84km
Updated: 19/12/2013 08:50
NOT Current
Clear
Clear
 Wind from SW
Wind: SW 16 mph , 26 km/h
Temperature: 4°C
Wind Chill: -1°C
Dew Point: -1°C
Humidity: 70%
Barometer: 996 hPa
Clouds: Clear
Visibility: 6 miles , 10 km
2013/12/19 08:50 EGXG 190850Z AUTO 23014KT 9999 NCD 04/M01 Q0996
 
EGOM - Spadeadam, United Kingdom
Distance from station: WNW 58mi, 94km
Updated: 24/06/2017 03:50
Mostly cloudy
Mostly cloudy
 Wind from WSW
Wind: WSW 14 mph , 22 km/h
Temperature: 9°C
Wind Chill: 6°C
Dew Point: 8°C
Humidity: 94%
Barometer: 1008 hPa
Clouds: Mostly cloudy
Visibility: 6 miles , 10 km
Cloud details: Mostly cloudy 1128 m
2017/06/24 02:50 EGOM 240250Z AUTO 25012KT 9999 BKN037/// 09/08 Q1008
EGNC - Carlisle, United Kingdom
Distance from station: WNW 65mi, 105km
Updated: 23/06/2017 17:50
NOT Current
Light rain, Showers, Mist, Mostly cloudy
Light rain, Showers, Mist, Mostly cloudy
 Wind from WSW
Wind: WSW 9 mph , 15 km/h
Temperature: 14°C
Dew Point: 13°C
Humidity: 94%
Barometer: 1009 hPa
Summary: Light rain, Showers, Mist
Clouds: Mostly cloudy
Visibility: 3 miles , 5 km
Cloud details: Few Clouds 183 m
Mostly cloudy 305 m
2017/06/23 16:50 EGNC 231650Z 25008KT 220V280 4500 -SHRA BR FEW006 BKN010 14/13 Q1009
 
EGCN - Doncaster Sheffi, United Kingdom
Distance from station: S 77mi, 124km
Updated: 24/06/2017 04:20
Few Clouds
Few Clouds
 Wind from W
Wind: W 9 mph , 15 km/h
Temperature: 14°C
Dew Point: 13°C
Humidity: 94%
Barometer: 1011 hPa
Clouds: Few Clouds
Visibility: 6 miles , 10 km
Cloud details: Few Clouds 1006 m
2017/06/24 03:20 EGCN 240320Z 27008KT 9999 FEW033 14/13 Q1011
EGNJ - Humberside, United Kingdom
Distance from station: SSE 80mi, 129km
Updated: 24/06/2017 04:20
Mostly cloudy
Mostly cloudy
 Wind from W
Wind: W 10 mph , 17 km/h
Temperature: 15°C
Dew Point: 14°C
Humidity: 94%
Barometer: 1011 hPa
Clouds: Mostly cloudy
Visibility: 6 miles , 10 km
Cloud details: Few Clouds 213 m
Partly cloudy 488 m
Mostly cloudy 671 m
2017/06/24 03:20 EGNJ 240320Z AUTO 26009KT 9999 FEW007/// SCT016/// BKN022/// 15/14 Q1011 REDZ
 
EGNH - Blackpool Airpor, United Kingdom
Distance from station: SW 90mi, 145km
Updated: 23/06/2017 20:50
NOT Current
Mostly cloudy
Mostly cloudy
 Wind from SW
Wind: SW 24 mph , 39 km/h
Temperature: 16°C
Dew Point: 15°C
Humidity: 94%
Barometer: 1011 hPa
Clouds: Mostly cloudy
Visibility: 6 miles , 9 km
Cloud details: Mostly cloudy 183 m
2017/06/23 19:50 EGNH 231950Z 23021KT 9000 BKN006 16/15 Q1011
EGXP - Scampton Raf, United Kingdom
Distance from station: SSE 94mi, 151km
Updated: 24/06/2017 03:50
Overcast
Overcast
 Wind from WSW
Wind: WSW 17 mph , 28 km/h
Temperature: 16°C
Dew Point: 14°C
Humidity: 88%
Barometer: 1010 hPa
Clouds: Overcast
Visibility: 6 miles , 10 km
Cloud details: Overcast 457 m
2017/06/24 02:50 EGXP 240250Z AUTO 25015KT 9999 // OVC015/// 16/14 Q1010
 
EGCC - Manchester Intl, United Kingdom
Distance from station: SSW 94mi, 152km
Updated: 24/06/2017 04:20
Mostly cloudy
Mostly cloudy
 Wind from W
Wind: W 9 mph , 15 km/h
Temperature: 14°C
Dew Point: 12°C
Humidity: 88%
Barometer: 1012 hPa
Clouds: Mostly cloudy
Visibility: 6 miles , 10 km
Cloud details: Partly cloudy 488 m
Mostly cloudy 1006 m
2017/06/24 03:20 EGCC 240320Z AUTO 27008KT 9999 SCT016 BKN033 14/12 Q1012 NOSIG
EGOW - Woodvale Raf, United Kingdom
Distance from station: SW 100mi, 160km
Updated: 22/06/2017 16:50
NOT Current
Partly cloudy
Partly cloudy
 Wind from W
Wind: W 18 mph , 30 km/h
Temperature: 17°C
Dew Point: 12°C
Humidity: 73%
Barometer: 1013 hPa
Clouds: Partly cloudy
Visibility: 6 miles , 10 km
Cloud details: Partly cloudy 457 m
2017/06/22 15:50 EGOW 221550Z 28016KT 9999 SCT015 17/12 Q1013 WHT